Guernsey Island, United Kingdom
Current Conditions -  °F | °C
As of 4:20 PM on Wednesday 22 Oct 2014 (Local Time) from EGJB Reporting Station
Scattered Clouds Scattered Clouds  
Wind Chill: 14°   Ceiling: Unl
Heat Index: 14°   Visibility: 6mi
Dew Point:   Wind: 16mph
Humidity: 72%   Direction: 270°W
Pressure: 30.36"   Gusts: NA
Location:  49.43°N, 2.6°W
Report Text: EGJB 221520Z 27014KT 9999 FEW025 SCT038 14/09 Q1028
Loading
Personal Weather Stations






























Interactive Weather Map
Tropical Storm Tracking
New forecast layout! Learn more

10-Day Weather Forecast

Advertisements
Track Severe Weather on mobile